sensor_id;sensor_type;location;lat;lon;timestamp;P1;durP1;ratioP1;P2;durP2;ratioP2
44456;SDS011;30159;49.316;8.558;2023-03-08T00:00:38;7.23;;;3.97;;
44456;SDS011;30159;49.316;8.558;2023-03-08T00:03:05;10.90;;;4.33;;
44456;SDS011;30159;49.316;8.558;2023-03-08T00:05:31;4.63;;;3.40;;
44456;SDS011;30159;49.316;8.558;2023-03-08T00:07:58;5.90;;;5.10;;
44456;SDS011;30159;49.316;8.558;2023-03-08T00:10:24;4.33;;;3.83;;
44456;SDS011;30159;49.316;8.558;2023-03-08T00:12:52;6.53;;;4.20;;
44456;SDS011;30159;49.316;8.558;2023-03-08T00:15:19;6.27;;;4.73;;
44456;SDS011;30159;49.316;8.558;2023-03-08T00:17:45;6.13;;;4.50;;
44456;SDS011;30159;49.316;8.558;2023-03-08T00:20:12;10.23;;;5.87;;
44456;SDS011;30159;49.316;8.558;2023-03-08T00:22:39;5.77;;;4.50;;
44456;SDS011;30159;49.316;8.558;2023-03-08T00:25:07;5.50;;;4.43;;
44456;SDS011;30159;49.316;8.558;2023-03-08T00:27:35;5.00;;;4.23;;
44456;SDS011;30159;49.316;8.558;2023-03-08T00:30:04;4.17;;;3.43;;
44456;SDS011;30159;49.316;8.558;2023-03-08T00:32:31;7.70;;;4.73;;
44456;SDS011;30159;49.316;8.558;2023-03-08T00:34:58;7.73;;;4.27;;
44456;SDS011;30159;49.316;8.558;2023-03-08T00:37:25;6.93;;;4.17;;
44456;SDS011;30159;49.316;8.558;2023-03-08T00:39:51;6.00;;;4.80;;
44456;SDS011;30159;49.316;8.558;2023-03-08T00:42:19;5.47;;;4.27;;
44456;SDS011;30159;49.316;8.558;2023-03-08T00:44:45;9.40;;;4.43;;
44456;SDS011;30159;49.316;8.558;2023-03-08T00:47:13;7.50;;;4.67;;
44456;SDS011;30159;49.316;8.558;2023-03-08T00:49:41;6.90;;;4.70;;
44456;SDS011;30159;49.316;8.558;2023-03-08T00:52:08;7.10;;;5.53;;
44456;SDS011;30159;49.316;8.558;2023-03-08T00:54:35;5.73;;;5.13;;
44456;SDS011;30159;49.316;8.558;2023-03-08T00:57:01;5.43;;;4.63;;
44456;SDS011;30159;49.316;8.558;2023-03-08T00:59:28;6.73;;;4.40;;
44456;SDS011;30159;49.316;8.558;2023-03-08T01:01:55;5.27;;;4.30;;
44456;SDS011;30159;49.316;8.558;2023-03-08T01:04:23;6.17;;;4.83;;
44456;SDS011;30159;49.316;8.558;2023-03-08T01:06:49;5.20;;;4.40;;
44456;SDS011;30159;49.316;8.558;2023-03-08T01:09:16;7.20;;;4.23;;
44456;SDS011;30159;49.316;8.558;2023-03-08T01:11:43;7.70;;;4.90;;
44456;SDS011;30159;49.316;8.558;2023-03-08T01:14:09;8.93;;;5.50;;
44456;SDS011;30159;49.316;8.558;2023-03-08T01:16:36;8.53;;;5.70;;
44456;SDS011;30159;49.316;8.558;2023-03-08T01:19:03;6.73;;;4.23;;
44456;SDS011;30159;49.316;8.558;2023-03-08T01:21:31;6.00;;;4.77;;
44456;SDS011;30159;49.316;8.558;2023-03-08T01:23:58;12.30;;;5.60;;
44456;SDS011;30159;49.316;8.558;2023-03-08T01:26:25;7.63;;;4.33;;
44456;SDS011;30159;49.316;8.558;2023-03-08T01:28:52;8.30;;;4.13;;
44456;SDS011;30159;49.316;8.558;2023-03-08T01:31:20;7.93;;;5.10;;
44456;SDS011;30159;49.316;8.558;2023-03-08T01:33:47;4.33;;;3.93;;
44456;SDS011;30159;49.316;8.558;2023-03-08T01:36:15;9.50;;;4.20;;
44456;SDS011;30159;49.316;8.558;2023-03-08T01:38:44;5.23;;;4.27;;
44456;SDS011;30159;49.316;8.558;2023-03-08T01:41:13;4.93;;;4.33;;
44456;SDS011;30159;49.316;8.558;2023-03-08T01:43:41;6.73;;;5.07;;
44456;SDS011;30159;49.316;8.558;2023-03-08T01:46:16;8.40;;;5.07;;
44456;SDS011;30159;49.316;8.558;2023-03-08T01:48:47;9.40;;;5.97;;
44456;SDS011;30159;49.316;8.558;2023-03-08T01:51:19;6.70;;;4.40;;
44456;SDS011;30159;49.316;8.558;2023-03-08T01:53:51;8.90;;;4.77;;
44456;SDS011;30159;49.316;8.558;2023-03-08T01:56:18;7.53;;;5.10;;
44456;SDS011;30159;49.316;8.558;2023-03-08T01:58:47;12.60;;;5.07;;
44456;SDS011;30159;49.316;8.558;2023-03-08T02:01:16;7.00;;;4.90;;
44456;SDS011;30159;49.316;8.558;2023-03-08T02:03:44;5.03;;;4.40;;
44456;SDS011;30159;49.316;8.558;2023-03-08T02:06:12;7.77;;;4.70;;
44456;SDS011;30159;49.316;8.558;2023-03-08T02:08:40;4.43;;;4.03;;
44456;SDS011;30159;49.316;8.558;2023-03-08T02:11:08;6.60;;;5.00;;
44456;SDS011;30159;49.316;8.558;2023-03-08T02:13:37;8.83;;;4.47;;
44456;SDS011;30159;49.316;8.558;2023-03-08T02:16:04;5.83;;;5.17;;
44456;SDS011;30159;49.316;8.558;2023-03-08T02:18:32;7.67;;;4.73;;
44456;SDS011;30159;49.316;8.558;2023-03-08T02:20:59;6.50;;;4.97;;
44456;SDS011;30159;49.316;8.558;2023-03-08T02:23:28;5.77;;;5.17;;
44456;SDS011;30159;49.316;8.558;2023-03-08T02:25:55;8.10;;;4.77;;
44456;SDS011;30159;49.316;8.558;2023-03-08T02:28:24;10.10;;;5.93;;
44456;SDS011;30159;49.316;8.558;2023-03-08T02:30:51;6.17;;;4.93;;
44456;SDS011;30159;49.316;8.558;2023-03-08T02:33:19;7.33;;;5.20;;
44456;SDS011;30159;49.316;8.558;2023-03-08T02:35:46;11.23;;;5.37;;
44456;SDS011;30159;49.316;8.558;2023-03-08T02:38:13;7.60;;;5.53;;
44456;SDS011;30159;49.316;8.558;2023-03-08T02:40:43;6.80;;;5.40;;
44456;SDS011;30159;49.316;8.558;2023-03-08T02:43:09;9.27;;;5.50;;
44456;SDS011;30159;49.316;8.558;2023-03-08T02:45:36;6.73;;;5.47;;
44456;SDS011;30159;49.316;8.558;2023-03-08T02:48:03;9.53;;;5.20;;
44456;SDS011;30159;49.316;8.558;2023-03-08T02:50:30;9.60;;;6.43;;
44456;SDS011;30159;49.316;8.558;2023-03-08T02:52:57;11.47;;;6.70;;
44456;SDS011;30159;49.316;8.558;2023-03-08T02:55:24;7.53;;;6.67;;
44456;SDS011;30159;49.316;8.558;2023-03-08T02:57:52;12.57;;;6.10;;
44456;SDS011;30159;49.316;8.558;2023-03-08T03:00:19;7.97;;;5.90;;
44456;SDS011;30159;49.316;8.558;2023-03-08T03:02:45;10.43;;;6.37;;
44456;SDS011;30159;49.316;8.558;2023-03-08T03:05:12;8.17;;;5.10;;
44456;SDS011;30159;49.316;8.558;2023-03-08T03:07:40;7.07;;;5.57;;
44456;SDS011;30159;49.316;8.558;2023-03-08T03:10:09;14.47;;;5.97;;
44456;SDS011;30159;49.316;8.558;2023-03-08T03:12:37;7.83;;;5.67;;
44456;SDS011;30159;49.316;8.558;2023-03-08T03:15:05;9.43;;;5.77;;
44456;SDS011;30159;49.316;8.558;2023-03-08T03:17:33;8.93;;;5.80;;
44456;SDS011;30159;49.316;8.558;2023-03-08T03:20:01;12.57;;;6.90;;
44456;SDS011;30159;49.316;8.558;2023-03-08T03:22:28;8.73;;;5.90;;
44456;SDS011;30159;49.316;8.558;2023-03-08T03:24:55;6.70;;;5.63;;
44456;SDS011;30159;49.316;8.558;2023-03-08T03:27:21;10.17;;;6.13;;
44456;SDS011;30159;49.316;8.558;2023-03-08T03:29:48;12.43;;;6.43;;
44456;SDS011;30159;49.316;8.558;2023-03-08T03:32:16;9.07;;;4.80;;
44456;SDS011;30159;49.316;8.558;2023-03-08T03:34:42;9.97;;;5.60;;
44456;SDS011;30159;49.316;8.558;2023-03-08T03:37:09;8.30;;;6.57;;
44456;SDS011;30159;49.316;8.558;2023-03-08T03:39:35;10.57;;;5.63;;
44456;SDS011;30159;49.316;8.558;2023-03-08T03:42:03;10.43;;;6.93;;
44456;SDS011;30159;49.316;8.558;2023-03-08T03:44:30;7.73;;;6.47;;
44456;SDS011;30159;49.316;8.558;2023-03-08T03:46:57;9.80;;;5.93;;
44456;SDS011;30159;49.316;8.558;2023-03-08T03:49:25;8.50;;;5.57;;
44456;SDS011;30159;49.316;8.558;2023-03-08T03:51:51;9.90;;;6.47;;
44456;SDS011;30159;49.316;8.558;2023-03-08T03:54:18;8.57;;;6.27;;
44456;SDS011;30159;49.316;8.558;2023-03-08T03:56:44;8.70;;;6.30;;
44456;SDS011;30159;49.316;8.558;2023-03-08T03:59:11;10.57;;;6.63;;
44456;SDS011;30159;49.316;8.558;2023-03-08T04:01:37;10.33;;;6.60;;
44456;SDS011;30159;49.316;8.558;2023-03-08T04:04:04;9.17;;;6.43;;
44456;SDS011;30159;49.316;8.558;2023-03-08T04:06:33;7.10;;;5.70;;
44456;SDS011;30159;49.316;8.558;2023-03-08T04:09:00;11.60;;;5.90;;
44456;SDS011;30159;49.316;8.558;2023-03-08T04:11:31;9.67;;;6.67;;
44456;SDS011;30159;49.316;8.558;2023-03-08T04:13:58;8.33;;;5.77;;
44456;SDS011;30159;49.316;8.558;2023-03-08T04:16:26;12.43;;;6.37;;
44456;SDS011;30159;49.316;8.558;2023-03-08T04:18:54;9.33;;;5.90;;
44456;SDS011;30159;49.316;8.558;2023-03-08T04:21:22;11.87;;;6.57;;
44456;SDS011;30159;49.316;8.558;2023-03-08T04:23:50;7.87;;;6.63;;
44456;SDS011;30159;49.316;8.558;2023-03-08T04:26:17;12.67;;;7.47;;
44456;SDS011;30159;49.316;8.558;2023-03-08T04:28:43;9.40;;;6.30;;
44456;SDS011;30159;49.316;8.558;2023-03-08T04:31:11;12.07;;;6.97;;
44456;SDS011;30159;49.316;8.558;2023-03-08T04:33:38;10.60;;;7.23;;
44456;SDS011;30159;49.316;8.558;2023-03-08T04:36:05;11.07;;;6.70;;
44456;SDS011;30159;49.316;8.558;2023-03-08T04:38:32;10.80;;;7.17;;
44456;SDS011;30159;49.316;8.558;2023-03-08T04:41:01;8.47;;;6.07;;
44456;SDS011;30159;49.316;8.558;2023-03-08T04:43:34;12.70;;;6.47;;
44456;SDS011;30159;49.316;8.558;2023-03-08T04:46:01;8.60;;;6.17;;
44456;SDS011;30159;49.316;8.558;2023-03-08T04:48:28;13.07;;;6.47;;
44456;SDS011;30159;49.316;8.558;2023-03-08T04:50:55;11.37;;;7.03;;
44456;SDS011;30159;49.316;8.558;2023-03-08T04:53:24;12.60;;;7.83;;
44456;SDS011;30159;49.316;8.558;2023-03-08T04:55:51;9.97;;;6.57;;
44456;SDS011;30159;49.316;8.558;2023-03-08T04:58:20;11.90;;;7.23;;
44456;SDS011;30159;49.316;8.558;2023-03-08T05:00:47;8.50;;;6.30;;
44456;SDS011;30159;49.316;8.558;2023-03-08T05:03:14;8.90;;;5.70;;
44456;SDS011;30159;49.316;8.558;2023-03-08T05:05:43;10.43;;;6.70;;
44456;SDS011;30159;49.316;8.558;2023-03-08T05:08:11;11.20;;;7.17;;
44456;SDS011;30159;49.316;8.558;2023-03-08T05:10:37;12.87;;;6.27;;
44456;SDS011;30159;49.316;8.558;2023-03-08T05:13:04;10.90;;;7.13;;
44456;SDS011;30159;49.316;8.558;2023-03-08T05:15:31;13.17;;;6.90;;
44456;SDS011;30159;49.316;8.558;2023-03-08T05:17:58;15.63;;;7.30;;
44456;SDS011;30159;49.316;8.558;2023-03-08T05:20:24;11.37;;;7.10;;
44456;SDS011;30159;49.316;8.558;2023-03-08T05:22:51;10.27;;;6.90;;
44456;SDS011;30159;49.316;8.558;2023-03-08T05:25:18;11.80;;;6.00;;
44456;SDS011;30159;49.316;8.558;2023-03-08T05:27:44;13.33;;;7.43;;
44456;SDS011;30159;49.316;8.558;2023-03-08T05:30:11;13.63;;;6.87;;
44456;SDS011;30159;49.316;8.558;2023-03-08T05:32:39;8.20;;;5.97;;
44456;SDS011;30159;49.316;8.558;2023-03-08T05:35:06;14.40;;;7.40;;
44456;SDS011;30159;49.316;8.558;2023-03-08T05:37:33;9.10;;;7.27;;
44456;SDS011;30159;49.316;8.558;2023-03-08T05:40:00;9.13;;;6.53;;
44456;SDS011;30159;49.316;8.558;2023-03-08T05:42:29;8.23;;;6.00;;
44456;SDS011;30159;49.316;8.558;2023-03-08T05:44:56;7.53;;;5.70;;
44456;SDS011;30159;49.316;8.558;2023-03-08T05:47:25;8.67;;;6.47;;
44456;SDS011;30159;49.316;8.558;2023-03-08T05:49:54;9.30;;;6.07;;
44456;SDS011;30159;49.316;8.558;2023-03-08T05:52:21;8.77;;;5.80;;
44456;SDS011;30159;49.316;8.558;2023-03-08T05:54:47;13.50;;;7.50;;
44456;SDS011;30159;49.316;8.558;2023-03-08T05:57:14;6.70;;;5.63;;
44456;SDS011;30159;49.316;8.558;2023-03-08T05:59:40;9.87;;;6.90;;
44456;SDS011;30159;49.316;8.558;2023-03-08T06:02:07;10.50;;;6.57;;
44456;SDS011;30159;49.316;8.558;2023-03-08T06:04:33;12.70;;;6.93;;
44456;SDS011;30159;49.316;8.558;2023-03-08T06:07:01;11.83;;;6.87;;
44456;SDS011;30159;49.316;8.558;2023-03-08T06:09:28;9.97;;;6.33;;
44456;SDS011;30159;49.316;8.558;2023-03-08T06:11:54;11.37;;;6.70;;
44456;SDS011;30159;49.316;8.558;2023-03-08T06:14:21;7.63;;;6.37;;
44456;SDS011;30159;49.316;8.558;2023-03-08T06:16:48;9.67;;;5.90;;
44456;SDS011;30159;49.316;8.558;2023-03-08T06:19:14;10.77;;;6.93;;
44456;SDS011;30159;49.316;8.558;2023-03-08T06:21:41;9.93;;;7.00;;
44456;SDS011;30159;49.316;8.558;2023-03-08T06:24:09;7.60;;;6.30;;
44456;SDS011;30159;49.316;8.558;2023-03-08T06:26:36;13.13;;;6.73;;
44456;SDS011;30159;49.316;8.558;2023-03-08T06:29:02;10.33;;;6.27;;
44456;SDS011;30159;49.316;8.558;2023-03-08T06:31:29;7.60;;;5.57;;
44456;SDS011;30159;49.316;8.558;2023-03-08T06:33:55;11.67;;;6.50;;
44456;SDS011;30159;49.316;8.558;2023-03-08T06:36:22;8.43;;;5.57;;
44456;SDS011;30159;49.316;8.558;2023-03-08T06:38:48;13.20;;;6.87;;
44456;SDS011;30159;49.316;8.558;2023-03-08T06:41:17;13.07;;;6.23;;
44456;SDS011;30159;49.316;8.558;2023-03-08T06:43:44;10.50;;;6.47;;
44456;SDS011;30159;49.316;8.558;2023-03-08T06:46:12;8.43;;;5.70;;
44456;SDS011;30159;49.316;8.558;2023-03-08T06:48:40;9.60;;;6.53;;
44456;SDS011;30159;49.316;8.558;2023-03-08T06:51:08;8.20;;;5.87;;
44456;SDS011;30159;49.316;8.558;2023-03-08T06:53:35;6.07;;;5.47;;
44456;SDS011;30159;49.316;8.558;2023-03-08T06:56:02;13.40;;;6.90;;
44456;SDS011;30159;49.316;8.558;2023-03-08T06:58:32;9.20;;;6.83;;
44456;SDS011;30159;49.316;8.558;2023-03-08T07:00:59;8.90;;;6.20;;
44456;SDS011;30159;49.316;8.558;2023-03-08T07:03:28;13.10;;;6.80;;
44456;SDS011;30159;49.316;8.558;2023-03-08T07:05:56;10.50;;;6.80;;
44456;SDS011;30159;49.316;8.558;2023-03-08T07:08:24;9.97;;;7.00;;
44456;SDS011;30159;49.316;8.558;2023-03-08T07:10:50;10.93;;;6.93;;
44456;SDS011;30159;49.316;8.558;2023-03-08T07:13:17;11.37;;;7.07;;
44456;SDS011;30159;49.316;8.558;2023-03-08T07:15:45;10.10;;;6.17;;
44456;SDS011;30159;49.316;8.558;2023-03-08T07:18:11;10.70;;;6.97;;
44456;SDS011;30159;49.316;8.558;2023-03-08T07:20:38;10.30;;;5.70;;
44456;SDS011;30159;49.316;8.558;2023-03-08T07:23:05;9.60;;;6.60;;
44456;SDS011;30159;49.316;8.558;2023-03-08T07:25:31;7.87;;;6.20;;
44456;SDS011;30159;49.316;8.558;2023-03-08T07:27:58;8.40;;;5.90;;
44456;SDS011;30159;49.316;8.558;2023-03-08T07:30:24;11.00;;;7.27;;
44456;SDS011;30159;49.316;8.558;2023-03-08T07:32:52;15.73;;;6.70;;
44456;SDS011;30159;49.316;8.558;2023-03-08T07:35:19;12.50;;;7.47;;
44456;SDS011;30159;49.316;8.558;2023-03-08T07:37:46;14.23;;;6.70;;
44456;SDS011;30159;49.316;8.558;2023-03-08T07:40:14;12.57;;;6.87;;
44456;SDS011;30159;49.316;8.558;2023-03-08T07:42:41;11.70;;;7.03;;
44456;SDS011;30159;49.316;8.558;2023-03-08T07:45:09;10.00;;;6.77;;
44456;SDS011;30159;49.316;8.558;2023-03-08T07:47:37;11.73;;;6.70;;
44456;SDS011;30159;49.316;8.558;2023-03-08T07:50:06;12.00;;;7.73;;
44456;SDS011;30159;49.316;8.558;2023-03-08T07:52:33;12.57;;;7.83;;
44456;SDS011;30159;49.316;8.558;2023-03-08T07:55:00;12.00;;;7.90;;
44456;SDS011;30159;49.316;8.558;2023-03-08T07:57:27;9.33;;;6.77;;
44456;SDS011;30159;49.316;8.558;2023-03-08T07:59:53;11.73;;;7.67;;
44456;SDS011;30159;49.316;8.558;2023-03-08T08:02:20;14.00;;;7.07;;
44456;SDS011;30159;49.316;8.558;2023-03-08T08:04:47;13.00;;;7.87;;
44456;SDS011;30159;49.316;8.558;2023-03-08T08:07:16;13.40;;;8.20;;
44456;SDS011;30159;49.316;8.558;2023-03-08T08:09:42;12.97;;;8.00;;
44456;SDS011;30159;49.316;8.558;2023-03-08T08:12:09;13.07;;;8.13;;
44456;SDS011;30159;49.316;8.558;2023-03-08T08:14:35;12.90;;;8.20;;
44456;SDS011;30159;49.316;8.558;2023-03-08T08:17:02;13.10;;;6.70;;
44456;SDS011;30159;49.316;8.558;2023-03-08T08:19:29;10.33;;;6.97;;
44456;SDS011;30159;49.316;8.558;2023-03-08T08:21:56;12.10;;;8.27;;
44456;SDS011;30159;49.316;8.558;2023-03-08T08:24:24;13.93;;;7.90;;
44456;SDS011;30159;49.316;8.558;2023-03-08T08:26:50;11.30;;;7.50;;
44456;SDS011;30159;49.316;8.558;2023-03-08T08:29:17;12.80;;;7.60;;
44456;SDS011;30159;49.316;8.558;2023-03-08T08:31:43;9.17;;;6.70;;
44456;SDS011;30159;49.316;8.558;2023-03-08T08:34:10;13.00;;;7.80;;
44456;SDS011;30159;49.316;8.558;2023-03-08T08:36:36;12.13;;;7.87;;
44456;SDS011;30159;49.316;8.558;2023-03-08T08:39:03;10.80;;;6.23;;
44456;SDS011;30159;49.316;8.558;2023-03-08T08:41:31;15.53;;;8.50;;
44456;SDS011;30159;49.316;8.558;2023-03-08T08:43:57;14.77;;;7.80;;
44456;SDS011;30159;49.316;8.558;2023-03-08T08:46:24;11.03;;;7.13;;
44456;SDS011;30159;49.316;8.558;2023-03-08T08:48:52;11.00;;;7.00;;
44456;SDS011;30159;49.316;8.558;2023-03-08T08:51:18;7.90;;;5.90;;
44456;SDS011;30159;49.316;8.558;2023-03-08T08:53:45;11.70;;;6.73;;
44456;SDS011;30159;49.316;8.558;2023-03-08T08:56:12;9.27;;;6.17;;
44456;SDS011;30159;49.316;8.558;2023-03-08T08:58:41;10.60;;;6.10;;
44456;SDS011;30159;49.316;8.558;2023-03-08T09:01:12;10.30;;;6.20;;
44456;SDS011;30159;49.316;8.558;2023-03-08T09:03:39;10.80;;;7.13;;
44456;SDS011;30159;49.316;8.558;2023-03-08T09:06:06;11.90;;;7.33;;
44456;SDS011;30159;49.316;8.558;2023-03-08T09:08:32;9.63;;;6.30;;
44456;SDS011;30159;49.316;8.558;2023-03-08T09:11:01;15.43;;;7.37;;
44456;SDS011;30159;49.316;8.558;2023-03-08T09:13:28;15.23;;;7.43;;
44456;SDS011;30159;49.316;8.558;2023-03-08T09:15:56;7.80;;;5.90;;
44456;SDS011;30159;49.316;8.558;2023-03-08T09:18:23;10.07;;;6.97;;
44456;SDS011;30159;49.316;8.558;2023-03-08T09:20:49;12.40;;;6.37;;
44456;SDS011;30159;49.316;8.558;2023-03-08T09:23:16;10.70;;;6.63;;
44456;SDS011;30159;49.316;8.558;2023-03-08T09:25:43;16.10;;;7.20;;
44456;SDS011;30159;49.316;8.558;2023-03-08T09:28:10;9.83;;;7.23;;
44456;SDS011;30159;49.316;8.558;2023-03-08T09:30:36;16.33;;;8.37;;
44456;SDS011;30159;49.316;8.558;2023-03-08T09:33:04;9.47;;;6.90;;
44456;SDS011;30159;49.316;8.558;2023-03-08T09:35:30;13.53;;;7.07;;
44456;SDS011;30159;49.316;8.558;2023-03-08T09:37:57;11.70;;;6.70;;
44456;SDS011;30159;49.316;8.558;2023-03-08T09:40:25;11.10;;;6.60;;
44456;SDS011;30159;49.316;8.558;2023-03-08T09:42:52;9.67;;;6.27;;
44456;SDS011;30159;49.316;8.558;2023-03-08T09:45:26;10.80;;;6.83;;
44456;SDS011;30159;49.316;8.558;2023-03-08T09:47:57;12.70;;;6.77;;
44456;SDS011;30159;49.316;8.558;2023-03-08T09:50:36;12.83;;;7.07;;
44456;SDS011;30159;49.316;8.558;2023-03-08T09:53:10;8.53;;;6.20;;
44456;SDS011;30159;49.316;8.558;2023-03-08T09:55:44;11.17;;;6.60;;
44456;SDS011;30159;49.316;8.558;2023-03-08T09:58:15;13.87;;;7.90;;
44456;SDS011;30159;49.316;8.558;2023-03-08T10:00:50;9.77;;;6.50;;
44456;SDS011;30159;49.316;8.558;2023-03-08T10:06:11;9.63;;;7.00;;
44456;SDS011;30159;49.316;8.558;2023-03-08T10:08:46;16.77;;;7.40;;
44456;SDS011;30159;49.316;8.558;2023-03-08T10:11:19;10.33;;;7.17;;
44456;SDS011;30159;49.316;8.558;2023-03-08T10:13:50;9.90;;;6.40;;
44456;SDS011;30159;49.316;8.558;2023-03-08T10:16:20;14.60;;;7.90;;
44456;SDS011;30159;49.316;8.558;2023-03-08T10:18:50;12.33;;;5.90;;
44456;SDS011;30159;49.316;8.558;2023-03-08T10:21:22;13.47;;;7.90;;
44456;SDS011;30159;49.316;8.558;2023-03-08T10:23:52;10.97;;;6.90;;
44456;SDS011;30159;49.316;8.558;2023-03-08T10:26:24;13.90;;;7.23;;
44456;SDS011;30159;49.316;8.558;2023-03-08T10:28:52;13.23;;;6.47;;
44456;SDS011;30159;49.316;8.558;2023-03-08T10:31:20;9.70;;;6.27;;
44456;SDS011;30159;49.316;8.558;2023-03-08T10:33:49;10.60;;;6.87;;
44456;SDS011;30159;49.316;8.558;2023-03-08T10:36:23;9.03;;;6.80;;
44456;SDS011;30159;49.316;8.558;2023-03-08T10:38:57;11.50;;;7.07;;
44456;SDS011;30159;49.316;8.558;2023-03-08T10:41:26;15.17;;;8.07;;
44456;SDS011;30159;49.316;8.558;2023-03-08T10:43:56;14.60;;;7.13;;
44456;SDS011;30159;49.316;8.558;2023-03-08T10:46:24;13.13;;;6.73;;
44456;SDS011;30159;49.316;8.558;2023-03-08T10:48:54;9.83;;;6.63;;
44456;SDS011;30159;49.316;8.558;2023-03-08T10:51:33;12.37;;;6.93;;
44456;SDS011;30159;49.316;8.558;2023-03-08T10:54:00;13.43;;;7.60;;
44456;SDS011;30159;49.316;8.558;2023-03-08T10:56:30;10.53;;;7.43;;
44456;SDS011;30159;49.316;8.558;2023-03-08T10:59:01;14.97;;;8.10;;
44456;SDS011;30159;49.316;8.558;2023-03-08T11:01:30;13.27;;;9.10;;
44456;SDS011;30159;49.316;8.558;2023-03-08T11:03:58;9.00;;;7.03;;
44456;SDS011;30159;49.316;8.558;2023-03-08T11:06:26;14.00;;;7.70;;
44456;SDS011;30159;49.316;8.558;2023-03-08T11:08:56;15.73;;;8.97;;
44456;SDS011;30159;49.316;8.558;2023-03-08T11:11:24;13.57;;;8.10;;
44456;SDS011;30159;49.316;8.558;2023-03-08T11:13:52;18.40;;;9.10;;
44456;SDS011;30159;49.316;8.558;2023-03-08T11:16:21;8.20;;;6.50;;
44456;SDS011;30159;49.316;8.558;2023-03-08T11:19:00;11.53;;;8.17;;
44456;SDS011;30159;49.316;8.558;2023-03-08T11:21:32;9.90;;;6.50;;
44456;SDS011;30159;49.316;8.558;2023-03-08T11:24:14;16.43;;;7.60;;
44456;SDS011;30159;49.316;8.558;2023-03-08T11:26:48;14.70;;;6.90;;
44456;SDS011;30159;49.316;8.558;2023-03-08T11:29:28;14.10;;;6.90;;
44456;SDS011;30159;49.316;8.558;2023-03-08T11:32:05;10.27;;;6.40;;
44456;SDS011;30159;49.316;8.558;2023-03-08T11:34:42;11.47;;;7.07;;
44456;SDS011;30159;49.316;8.558;2023-03-08T11:37:20;8.97;;;7.43;;
44456;SDS011;30159;49.316;8.558;2023-03-08T11:40:00;9.33;;;6.93;;
44456;SDS011;30159;49.316;8.558;2023-03-08T11:42:38;10.80;;;7.10;;
44456;SDS011;30159;49.316;8.558;2023-03-08T11:45:18;8.67;;;6.93;;
44456;SDS011;30159;49.316;8.558;2023-03-08T11:47:51;10.47;;;6.97;;
44456;SDS011;30159;49.316;8.558;2023-03-08T11:50:33;9.20;;;6.00;;
44456;SDS011;30159;49.316;8.558;2023-03-08T11:53:04;9.73;;;6.80;;
44456;SDS011;30159;49.316;8.558;2023-03-08T11:55:45;10.57;;;6.47;;
44456;SDS011;30159;49.316;8.558;2023-03-08T11:58:23;11.10;;;7.57;;
44456;SDS011;30159;49.316;8.558;2023-03-08T12:00:54;11.33;;;7.50;;
44456;SDS011;30159;49.316;8.558;2023-03-08T12:03:26;8.13;;;7.30;;
44456;SDS011;30159;49.316;8.558;2023-03-08T12:05:56;11.20;;;7.27;;
44456;SDS011;30159;49.316;8.558;2023-03-08T12:08:26;8.57;;;6.40;;
44456;SDS011;30159;49.316;8.558;2023-03-08T12:10:59;11.00;;;7.13;;
44456;SDS011;30159;49.316;8.558;2023-03-08T12:13:31;10.70;;;6.57;;
44456;SDS011;30159;49.316;8.558;2023-03-08T12:16:01;11.77;;;7.27;;
44456;SDS011;30159;49.316;8.558;2023-03-08T12:18:36;7.60;;;6.33;;
44456;SDS011;30159;49.316;8.558;2023-03-08T12:21:12;7.77;;;5.90;;
44456;SDS011;30159;49.316;8.558;2023-03-08T12:23:48;13.40;;;7.57;;
44456;SDS011;30159;49.316;8.558;2023-03-08T12:26:27;10.03;;;7.30;;
44456;SDS011;30159;49.316;8.558;2023-03-08T12:28:59;8.60;;;7.00;;
44456;SDS011;30159;49.316;8.558;2023-03-08T12:31:32;12.43;;;7.00;;
44456;SDS011;30159;49.316;8.558;2023-03-08T12:34:10;9.00;;;6.30;;
44456;SDS011;30159;49.316;8.558;2023-03-08T12:36:39;9.10;;;6.77;;
44456;SDS011;30159;49.316;8.558;2023-03-08T12:39:07;13.50;;;7.57;;
44456;SDS011;30159;49.316;8.558;2023-03-08T12:41:56;9.27;;;6.40;;
44456;SDS011;30159;49.316;8.558;2023-03-08T12:44:28;9.20;;;7.33;;
44456;SDS011;30159;49.316;8.558;2023-03-08T12:46:56;8.50;;;7.13;;
44456;SDS011;30159;49.316;8.558;2023-03-08T12:49:25;11.37;;;7.97;;
44456;SDS011;30159;49.316;8.558;2023-03-08T12:51:59;13.13;;;7.70;;
44456;SDS011;30159;49.316;8.558;2023-03-08T12:54:29;10.53;;;7.30;;
44456;SDS011;30159;49.316;8.558;2023-03-08T12:56:59;9.03;;;7.37;;
44456;SDS011;30159;49.316;8.558;2023-03-08T12:59:31;11.47;;;7.57;;
44456;SDS011;30159;49.316;8.558;2023-03-08T13:02:02;13.10;;;9.03;;
44456;SDS011;30159;49.316;8.558;2023-03-08T13:04:47;8.90;;;8.03;;
44456;SDS011;30159;49.316;8.558;2023-03-08T13:07:19;8.97;;;6.20;;
44456;SDS011;30159;49.316;8.558;2023-03-08T13:09:52;10.13;;;7.03;;
44456;SDS011;30159;49.316;8.558;2023-03-08T13:12:24;12.00;;;6.20;;
44456;SDS011;30159;49.316;8.558;2023-03-08T13:14:58;9.63;;;6.90;;
44456;SDS011;30159;49.316;8.558;2023-03-08T13:17:34;9.57;;;6.20;;
44456;SDS011;30159;49.316;8.558;2023-03-08T13:20:09;8.47;;;7.40;;
44456;SDS011;30159;49.316;8.558;2023-03-08T13:22:41;10.57;;;9.33;;
44456;SDS011;30159;49.316;8.558;2023-03-08T13:25:17;9.10;;;7.07;;
44456;SDS011;30159;49.316;8.558;2023-03-08T13:27:57;19.63;;;8.50;;
44456;SDS011;30159;49.316;8.558;2023-03-08T13:30:30;9.43;;;6.50;;
44456;SDS011;30159;49.316;8.558;2023-03-08T13:32:58;7.10;;;6.43;;
44456;SDS011;30159;49.316;8.558;2023-03-08T13:35:25;8.80;;;6.50;;
44456;SDS011;30159;49.316;8.558;2023-03-08T13:37:52;6.93;;;5.67;;
44456;SDS011;30159;49.316;8.558;2023-03-08T13:40:20;6.53;;;5.17;;
44456;SDS011;30159;49.316;8.558;2023-03-08T13:42:51;4.57;;;4.17;;
44456;SDS011;30159;49.316;8.558;2023-03-08T13:45:20;7.13;;;4.53;;
44456;SDS011;30159;49.316;8.558;2023-03-08T13:47:47;4.23;;;3.83;;
44456;SDS011;30159;49.316;8.558;2023-03-08T13:50:19;4.93;;;4.53;;
44456;SDS011;30159;49.316;8.558;2023-03-08T13:52:48;4.70;;;4.20;;
44456;SDS011;30159;49.316;8.558;2023-03-08T13:55:17;3.50;;;3.20;;
44456;SDS011;30159;49.316;8.558;2023-03-08T13:57:46;3.20;;;3.00;;
44456;SDS011;30159;49.316;8.558;2023-03-08T14:00:22;3.70;;;3.40;;
44456;SDS011;30159;49.316;8.558;2023-03-08T14:02:50;3.00;;;2.80;;
44456;SDS011;30159;49.316;8.558;2023-03-08T14:05:18;2.20;;;2.00;;
44456;SDS011;30159;49.316;8.558;2023-03-08T14:07:54;3.57;;;2.00;;
44456;SDS011;30159;49.316;8.558;2023-03-08T14:10:22;2.47;;;2.27;;
44456;SDS011;30159;49.316;8.558;2023-03-08T14:12:53;3.20;;;2.50;;
44456;SDS011;30159;49.316;8.558;2023-03-08T14:15:22;2.60;;;2.40;;
44456;SDS011;30159;49.316;8.558;2023-03-08T14:17:48;3.37;;;1.87;;
44456;SDS011;30159;49.316;8.558;2023-03-08T14:20:16;2.10;;;1.90;;
44456;SDS011;30159;49.316;8.558;2023-03-08T14:22:45;3.50;;;3.20;;
44456;SDS011;30159;49.316;8.558;2023-03-08T14:25:21;4.20;;;3.67;;
44456;SDS011;30159;49.316;8.558;2023-03-08T14:27:50;3.57;;;2.77;;
44456;SDS011;30159;49.316;8.558;2023-03-08T14:30:18;3.90;;;2.30;;
44456;SDS011;30159;49.316;8.558;2023-03-08T14:32:58;3.23;;;2.47;;
44456;SDS011;30159;49.316;8.558;2023-03-08T14:35:27;2.53;;;2.33;;
44456;SDS011;30159;49.316;8.558;2023-03-08T14:37:56;3.23;;;2.50;;
44456;SDS011;30159;49.316;8.558;2023-03-08T14:40:27;2.83;;;2.40;;
44456;SDS011;30159;49.316;8.558;2023-03-08T14:42:56;3.37;;;3.17;;
44456;SDS011;30159;49.316;8.558;2023-03-08T14:45:27;3.53;;;3.20;;
44456;SDS011;30159;49.316;8.558;2023-03-08T14:47:59;4.50;;;4.13;;
44456;SDS011;30159;49.316;8.558;2023-03-08T14:50:28;5.77;;;4.90;;
44456;SDS011;30159;49.316;8.558;2023-03-08T14:52:56;4.53;;;4.13;;